sensor_id;sensor_type;location;lat;lon;timestamp;temperature;humidity
6752;DHT22;3413;47.680;9.166;2022-12-11T00:02:48;4.70;99.90
6752;DHT22;3413;47.680;9.166;2022-12-11T00:07:50;4.80;99.90
6752;DHT22;3413;47.680;9.166;2022-12-11T00:12:52;4.80;99.90
6752;DHT22;3413;47.680;9.166;2022-12-11T00:17:54;4.80;99.90
6752;DHT22;3413;47.680;9.166;2022-12-11T00:22:56;4.90;99.90
6752;DHT22;3413;47.680;9.166;2022-12-11T00:27:58;5.00;99.90
6752;DHT22;3413;47.680;9.166;2022-12-11T00:32:59;5.00;99.90
6752;DHT22;3413;47.680;9.166;2022-12-11T00:38:01;5.00;99.90
6752;DHT22;3413;47.680;9.166;2022-12-11T00:43:03;4.90;99.90
6752;DHT22;3413;47.680;9.166;2022-12-11T00:48:06;4.90;99.90
6752;DHT22;3413;47.680;9.166;2022-12-11T00:53:08;4.90;99.90
6752;DHT22;3413;47.680;9.166;2022-12-11T00:58:11;4.80;99.90
6752;DHT22;3413;47.680;9.166;2022-12-11T01:03:14;4.60;99.90
6752;DHT22;3413;47.680;9.166;2022-12-11T01:08:16;4.50;99.90
6752;DHT22;3413;47.680;9.166;2022-12-11T01:13:18;4.50;99.90
6752;DHT22;3413;47.680;9.166;2022-12-11T01:18:20;4.40;99.90
6752;DHT22;3413;47.680;9.166;2022-12-11T01:23:22;4.50;99.90
6752;DHT22;3413;47.680;9.166;2022-12-11T01:28:24;4.50;99.90
6752;DHT22;3413;47.680;9.166;2022-12-11T01:33:26;4.50;99.90
6752;DHT22;3413;47.680;9.166;2022-12-11T01:38:28;4.50;99.90
6752;DHT22;3413;47.680;9.166;2022-12-11T01:43:30;4.50;99.90
6752;DHT22;3413;47.680;9.166;2022-12-11T01:48:32;4.50;99.90
6752;DHT22;3413;47.680;9.166;2022-12-11T01:53:46;4.40;99.90
6752;DHT22;3413;47.680;9.166;2022-12-11T01:58:52;4.30;99.90
6752;DHT22;3413;47.680;9.166;2022-12-11T02:03:56;4.30;99.90
6752;DHT22;3413;47.680;9.166;2022-12-11T02:08:58;4.20;99.90
6752;DHT22;3413;47.680;9.166;2022-12-11T02:14:14;4.10;99.90
6752;DHT22;3413;47.680;9.166;2022-12-11T02:19:41;4.10;99.90
6752;DHT22;3413;47.680;9.166;2022-12-11T02:29:52;4.00;99.90
6752;DHT22;3413;47.680;9.166;2022-12-11T02:35:02;4.00;99.90
6752;DHT22;3413;47.680;9.166;2022-12-11T02:40:08;4.10;99.90
6752;DHT22;3413;47.680;9.166;2022-12-11T02:45:12;4.10;99.90
6752;DHT22;3413;47.680;9.166;2022-12-11T02:50:19;4.00;99.90
6752;DHT22;3413;47.680;9.166;2022-12-11T02:55:22;4.00;99.90
6752;DHT22;3413;47.680;9.166;2022-12-11T03:00:25;3.90;99.90
6752;DHT22;3413;47.680;9.166;2022-12-11T03:05:27;3.80;99.90
6752;DHT22;3413;47.680;9.166;2022-12-11T03:10:29;3.80;99.90
6752;DHT22;3413;47.680;9.166;2022-12-11T03:15:49;3.90;99.90
6752;DHT22;3413;47.680;9.166;2022-12-11T03:20:59;3.80;99.90
6752;DHT22;3413;47.680;9.166;2022-12-11T03:26:12;3.70;99.90
6752;DHT22;3413;47.680;9.166;2022-12-11T03:31:27;3.60;99.90
6752;DHT22;3413;47.680;9.166;2022-12-11T03:36:33;3.60;99.90
6752;DHT22;3413;47.680;9.166;2022-12-11T03:41:40;3.70;99.90
6752;DHT22;3413;47.680;9.166;2022-12-11T03:46:45;3.90;99.90
6752;DHT22;3413;47.680;9.166;2022-12-11T03:51:49;3.90;99.90
6752;DHT22;3413;47.680;9.166;2022-12-11T03:56:55;4.00;99.90
6752;DHT22;3413;47.680;9.166;2022-12-11T04:01:57;4.00;99.90
6752;DHT22;3413;47.680;9.166;2022-12-11T04:06:59;4.00;99.90
6752;DHT22;3413;47.680;9.166;2022-12-11T04:12:01;4.00;99.90
6752;DHT22;3413;47.680;9.166;2022-12-11T04:17:03;4.00;99.90
6752;DHT22;3413;47.680;9.166;2022-12-11T04:22:06;3.90;99.90
6752;DHT22;3413;47.680;9.166;2022-12-11T04:27:26;3.60;99.90
6752;DHT22;3413;47.680;9.166;2022-12-11T04:32:47;3.40;99.90
6752;DHT22;3413;47.680;9.166;2022-12-11T04:37:49;3.20;99.90
6752;DHT22;3413;47.680;9.166;2022-12-11T04:42:51;3.10;99.90
6752;DHT22;3413;47.680;9.166;2022-12-11T04:47:52;3.10;99.90
6752;DHT22;3413;47.680;9.166;2022-12-11T04:52:57;3.00;99.90
6752;DHT22;3413;47.680;9.166;2022-12-11T04:57:59;2.90;99.90
6752;DHT22;3413;47.680;9.166;2022-12-11T05:03:01;2.90;99.90
6752;DHT22;3413;47.680;9.166;2022-12-11T05:08:03;2.90;99.90
6752;DHT22;3413;47.680;9.166;2022-12-11T05:13:06;3.00;99.90
6752;DHT22;3413;47.680;9.166;2022-12-11T05:18:08;3.00;99.90
6752;DHT22;3413;47.680;9.166;2022-12-11T05:23:10;3.10;99.90
6752;DHT22;3413;47.680;9.166;2022-12-11T05:28:12;3.10;99.90
6752;DHT22;3413;47.680;9.166;2022-12-11T05:33:14;3.10;99.90
6752;DHT22;3413;47.680;9.166;2022-12-11T05:38:16;3.10;99.90
6752;DHT22;3413;47.680;9.166;2022-12-11T05:43:18;3.10;99.90
6752;DHT22;3413;47.680;9.166;2022-12-11T05:48:20;3.00;99.90
6752;DHT22;3413;47.680;9.166;2022-12-11T05:53:22;2.90;99.90
6752;DHT22;3413;47.680;9.166;2022-12-11T05:58:24;2.90;99.90
6752;DHT22;3413;47.680;9.166;2022-12-11T06:03:27;2.90;99.90
6752;DHT22;3413;47.680;9.166;2022-12-11T06:08:29;2.80;99.90
6752;DHT22;3413;47.680;9.166;2022-12-11T06:13:32;2.70;99.90
6752;DHT22;3413;47.680;9.166;2022-12-11T06:18:35;2.60;99.90
6752;DHT22;3413;47.680;9.166;2022-12-11T06:23:37;2.50;99.90
6752;DHT22;3413;47.680;9.166;2022-12-11T06:28:39;2.60;99.90
6752;DHT22;3413;47.680;9.166;2022-12-11T06:33:41;2.50;99.90
6752;DHT22;3413;47.680;9.166;2022-12-11T06:38:44;2.60;99.90
6752;DHT22;3413;47.680;9.166;2022-12-11T06:43:46;2.60;99.90
6752;DHT22;3413;47.680;9.166;2022-12-11T06:48:48;2.70;99.90
6752;DHT22;3413;47.680;9.166;2022-12-11T06:53:55;2.70;99.90
6752;DHT22;3413;47.680;9.166;2022-12-11T06:58:57;2.70;99.90
6752;DHT22;3413;47.680;9.166;2022-12-11T07:04:08;2.60;99.90
6752;DHT22;3413;47.680;9.166;2022-12-11T07:09:10;2.60;99.90
6752;DHT22;3413;47.680;9.166;2022-12-11T07:14:12;2.50;99.90
6752;DHT22;3413;47.680;9.166;2022-12-11T07:19:14;2.50;99.90
6752;DHT22;3413;47.680;9.166;2022-12-11T07:24:16;2.50;99.90
6752;DHT22;3413;47.680;9.166;2022-12-11T07:29:18;2.50;99.90
6752;DHT22;3413;47.680;9.166;2022-12-11T07:34:20;2.40;99.90
6752;DHT22;3413;47.680;9.166;2022-12-11T07:39:22;2.50;99.90
6752;DHT22;3413;47.680;9.166;2022-12-11T07:44:24;2.40;99.90
6752;DHT22;3413;47.680;9.166;2022-12-11T07:49:26;2.30;99.90
6752;DHT22;3413;47.680;9.166;2022-12-11T07:54:28;2.30;99.90
6752;DHT22;3413;47.680;9.166;2022-12-11T07:59:31;2.20;99.90
6752;DHT22;3413;47.680;9.166;2022-12-11T08:04:33;2.20;99.90
6752;DHT22;3413;47.680;9.166;2022-12-11T08:09:35;2.20;99.90
6752;DHT22;3413;47.680;9.166;2022-12-11T08:14:37;2.30;99.90
6752;DHT22;3413;47.680;9.166;2022-12-11T08:19:39;2.30;99.90
6752;DHT22;3413;47.680;9.166;2022-12-11T08:24:41;2.80;99.90
6752;DHT22;3413;47.680;9.166;2022-12-11T08:29:43;3.40;99.90
6752;DHT22;3413;47.680;9.166;2022-12-11T08:34:46;4.20;99.90
6752;DHT22;3413;47.680;9.166;2022-12-11T08:39:51;5.10;99.90
6752;DHT22;3413;47.680;9.166;2022-12-11T08:44:55;6.10;99.90
6752;DHT22;3413;47.680;9.166;2022-12-11T08:50:04;7.10;99.90
6752;DHT22;3413;47.680;9.166;2022-12-11T08:55:26;7.90;99.90
6752;DHT22;3413;47.680;9.166;2022-12-11T09:07:01;9.50;99.90
6752;DHT22;3413;47.680;9.166;2022-12-11T09:12:08;10.00;99.90
6752;DHT22;3413;47.680;9.166;2022-12-11T09:33:46;10.90;99.90
6752;DHT22;3413;47.680;9.166;2022-12-11T09:38:48;11.00;99.90
6752;DHT22;3413;47.680;9.166;2022-12-11T09:45:09;11.20;99.90
6752;DHT22;3413;47.680;9.166;2022-12-11T15:04:31;7.10;99.90
6752;DHT22;3413;47.680;9.166;2022-12-11T18:55:28;2.90;99.60
6752;DHT22;3413;47.680;9.166;2022-12-11T19:00:31;2.90;99.50
6752;DHT22;3413;47.680;9.166;2022-12-11T19:05:34;2.90;99.40
6752;DHT22;3413;47.680;9.166;2022-12-11T19:10:42;2.80;99.50
6752;DHT22;3413;47.680;9.166;2022-12-11T19:15:45;2.70;99.40
6752;DHT22;3413;47.680;9.166;2022-12-11T19:20:48;2.70;99.30
6752;DHT22;3413;47.680;9.166;2022-12-11T19:25:58;2.60;99.30
6752;DHT22;3413;47.680;9.166;2022-12-11T19:31:00;2.60;99.20
6752;DHT22;3413;47.680;9.166;2022-12-11T19:36:09;2.40;99.20
6752;DHT22;3413;47.680;9.166;2022-12-11T19:41:27;2.40;99.60
6752;DHT22;3413;47.680;9.166;2022-12-11T19:46:30;2.40;99.20
6752;DHT22;3413;47.680;9.166;2022-12-11T19:51:37;2.40;99.00
6752;DHT22;3413;47.680;9.166;2022-12-11T19:56:39;2.10;99.00
6752;DHT22;3413;47.680;9.166;2022-12-11T20:01:43;2.00;99.00
6752;DHT22;3413;47.680;9.166;2022-12-11T20:06:50;2.10;99.10
6752;DHT22;3413;47.680;9.166;2022-12-11T20:11:54;2.00;98.90
6752;DHT22;3413;47.680;9.166;2022-12-11T20:16:57;2.10;99.00
6752;DHT22;3413;47.680;9.166;2022-12-11T20:22:16;2.10;98.90
6752;DHT22;3413;47.680;9.166;2022-12-11T20:27:18;2.10;98.90
6752;DHT22;3413;47.680;9.166;2022-12-11T20:32:20;1.90;98.90
6752;DHT22;3413;47.680;9.166;2022-12-11T20:37:22;1.80;98.90
6752;DHT22;3413;47.680;9.166;2022-12-11T20:42:26;1.90;99.10
6752;DHT22;3413;47.680;9.166;2022-12-11T20:47:28;1.90;99.10
6752;DHT22;3413;47.680;9.166;2022-12-11T20:52:31;1.90;99.10
6752;DHT22;3413;47.680;9.166;2022-12-11T20:57:33;1.90;99.10
6752;DHT22;3413;47.680;9.166;2022-12-11T21:02:35;1.90;99.10
6752;DHT22;3413;47.680;9.166;2022-12-11T21:07:37;1.90;99.10
6752;DHT22;3413;47.680;9.166;2022-12-11T21:12:39;2.00;99.10
6752;DHT22;3413;47.680;9.166;2022-12-11T21:17:41;2.00;99.10
6752;DHT22;3413;47.680;9.166;2022-12-11T21:22:43;1.90;99.10
6752;DHT22;3413;47.680;9.166;2022-12-11T21:27:45;1.90;99.10
6752;DHT22;3413;47.680;9.166;2022-12-11T21:32:47;1.90;99.20
6752;DHT22;3413;47.680;9.166;2022-12-11T21:37:49;2.20;99.50
6752;DHT22;3413;47.680;9.166;2022-12-11T21:42:51;2.20;99.40
6752;DHT22;3413;47.680;9.166;2022-12-11T21:47:53;2.10;99.20
6752;DHT22;3413;47.680;9.166;2022-12-11T21:52:55;2.00;99.30
6752;DHT22;3413;47.680;9.166;2022-12-11T21:57:57;1.90;99.20
6752;DHT22;3413;47.680;9.166;2022-12-11T22:02:59;1.90;99.30
6752;DHT22;3413;47.680;9.166;2022-12-11T22:08:02;1.90;99.20
6752;DHT22;3413;47.680;9.166;2022-12-11T22:13:03;1.70;99.20
6752;DHT22;3413;47.680;9.166;2022-12-11T22:18:06;1.80;99.30
6752;DHT22;3413;47.680;9.166;2022-12-11T22:23:08;1.70;99.20
6752;DHT22;3413;47.680;9.166;2022-12-11T22:28:10;1.80;99.20
6752;DHT22;3413;47.680;9.166;2022-12-11T22:33:12;1.70;99.30
6752;DHT22;3413;47.680;9.166;2022-12-11T22:38:14;1.70;99.20
6752;DHT22;3413;47.680;9.166;2022-12-11T22:43:16;1.70;99.20
6752;DHT22;3413;47.680;9.166;2022-12-11T22:48:18;1.60;99.20
6752;DHT22;3413;47.680;9.166;2022-12-11T22:53:20;1.70;99.30
6752;DHT22;3413;47.680;9.166;2022-12-11T22:58:22;1.80;99.30
6752;DHT22;3413;47.680;9.166;2022-12-11T23:03:24;1.70;99.20
6752;DHT22;3413;47.680;9.166;2022-12-11T23:08:26;1.70;99.20
6752;DHT22;3413;47.680;9.166;2022-12-11T23:13:29;1.70;99.20
6752;DHT22;3413;47.680;9.166;2022-12-11T23:18:31;1.70;99.30
6752;DHT22;3413;47.680;9.166;2022-12-11T23:23:33;1.60;99.20
6752;DHT22;3413;47.680;9.166;2022-12-11T23:28:35;1.60;99.30
6752;DHT22;3413;47.680;9.166;2022-12-11T23:33:38;1.70;99.30
6752;DHT22;3413;47.680;9.166;2022-12-11T23:38:40;1.60;99.60
6752;DHT22;3413;47.680;9.166;2022-12-11T23:43:41;1.60;99.30
6752;DHT22;3413;47.680;9.166;2022-12-11T23:48:44;1.50;99.30
6752;DHT22;3413;47.680;9.166;2022-12-11T23:53:46;1.50;99.30
6752;DHT22;3413;47.680;9.166;2022-12-11T23:58:49;1.60;99.30
